Anton, Colorado
Current Conditions -  °F | °C
As of 1:53 AM on Wednesday 22 Oct 2014 (Local Time) from KAKO Reporting Station
Light Rain Light Rain  
Wind Chill: 57°   Ceiling: Unl
Heat Index: 57°   Visibility: 10mi
Dew Point: 43°   Wind: 17mph
Humidity: 59%   Direction: 340°NNW
Pressure: 29.94"   Gusts: NA
Location:  39.74°N, 103.22°W
Report Text: KAKO 220753Z AUTO 34015KT 10SM -RA CLR 14/06 A2994 RMK AO2 RAB43 SLP086 P0000 T01390061
Loading
Personal Weather Stations






























Interactive Weather Map
Tropical Storm Tracking
New forecast layout! Learn more

10-Day Weather Forecast

Advertisements
Track Severe Weather on mobile